sensor_id;sensor_type;location;lat;lon;timestamp;pressure;altitude;pressure_sealevel;temperature;humidity
4398;BME280;2213;49.720;7.296;2022-09-30T00:01:54;97316.66;;;7.00;100.00
4398;BME280;2213;49.720;7.296;2022-09-30T00:04:24;97314.53;;;6.89;100.00
4398;BME280;2213;49.720;7.296;2022-09-30T00:06:53;97313.09;;;6.86;100.00
4398;BME280;2213;49.720;7.296;2022-09-30T00:09:23;97320.34;;;6.91;100.00
4398;BME280;2213;49.720;7.296;2022-09-30T00:11:53;97322.25;;;6.82;100.00
4398;BME280;2213;49.720;7.296;2022-09-30T00:14:23;97336.41;;;6.80;100.00
4398;BME280;2213;49.720;7.296;2022-09-30T00:16:51;97332.56;;;6.76;100.00
4398;BME280;2213;49.720;7.296;2022-09-30T00:19:22;97329.31;;;6.74;100.00
4398;BME280;2213;49.720;7.296;2022-09-30T00:21:51;97325.38;;;6.78;100.00
4398;BME280;2213;49.720;7.296;2022-09-30T00:24:20;97332.91;;;6.73;100.00
4398;BME280;2213;49.720;7.296;2022-09-30T00:26:49;97333.97;;;6.64;100.00
4398;BME280;2213;49.720;7.296;2022-09-30T00:29:20;97340.72;;;6.58;100.00
4398;BME280;2213;49.720;7.296;2022-09-30T00:31:48;97341.16;;;6.62;100.00
4398;BME280;2213;49.720;7.296;2022-09-30T00:34:17;97343.75;;;6.62;100.00
4398;BME280;2213;49.720;7.296;2022-09-30T00:36:48;97348.59;;;6.65;100.00
4398;BME280;2213;49.720;7.296;2022-09-30T00:39:20;97337.59;;;6.63;100.00
4398;BME280;2213;49.720;7.296;2022-09-30T00:41:54;97335.97;;;6.62;100.00
4398;BME280;2213;49.720;7.296;2022-09-30T00:44:46;97343.22;;;6.51;100.00
4398;BME280;2213;49.720;7.296;2022-09-30T00:47:42;97339.66;;;6.52;100.00
4398;BME280;2213;49.720;7.296;2022-09-30T00:50:28;97340.25;;;6.54;100.00
4398;BME280;2213;49.720;7.296;2022-09-30T00:53:07;97348.66;;;6.56;100.00
4398;BME280;2213;49.720;7.296;2022-09-30T00:55:46;97347.84;;;6.56;100.00
4398;BME280;2213;49.720;7.296;2022-09-30T00:58:24;97351.63;;;6.53;100.00
4398;BME280;2213;49.720;7.296;2022-09-30T01:00:59;97351.00;;;6.51;100.00
4398;BME280;2213;49.720;7.296;2022-09-30T01:03:31;97356.28;;;6.43;100.00
4398;BME280;2213;49.720;7.296;2022-09-30T01:06:02;97351.06;;;6.29;100.00
4398;BME280;2213;49.720;7.296;2022-09-30T01:08:36;97361.66;;;6.04;100.00
4398;BME280;2213;49.720;7.296;2022-09-30T01:11:06;97358.81;;;5.99;100.00
4398;BME280;2213;49.720;7.296;2022-09-30T01:13:39;97362.56;;;5.97;100.00
4398;BME280;2213;49.720;7.296;2022-09-30T01:16:31;97355.84;;;6.02;100.00
4398;BME280;2213;49.720;7.296;2022-09-30T01:19:52;97361.03;;;6.02;100.00
4398;BME280;2213;49.720;7.296;2022-09-30T01:22:40;97359.97;;;5.97;100.00
4398;BME280;2213;49.720;7.296;2022-09-30T01:25:52;97368.78;;;5.88;100.00
4398;BME280;2213;49.720;7.296;2022-09-30T01:31:53;97367.84;;;5.81;100.00
4398;BME280;2213;49.720;7.296;2022-09-30T01:34:38;97367.84;;;5.81;100.00
4398;BME280;2213;49.720;7.296;2022-09-30T01:37:20;97370.31;;;5.74;100.00
4398;BME280;2213;49.720;7.296;2022-09-30T01:40:02;97367.88;;;5.73;100.00
4398;BME280;2213;49.720;7.296;2022-09-30T01:42:43;97368.53;;;5.75;100.00
4398;BME280;2213;49.720;7.296;2022-09-30T01:45:21;97366.66;;;5.83;100.00
4398;BME280;2213;49.720;7.296;2022-09-30T01:48:00;97362.78;;;5.87;100.00
4398;BME280;2213;49.720;7.296;2022-09-30T01:50:42;97358.41;;;5.88;100.00
4398;BME280;2213;49.720;7.296;2022-09-30T01:53:22;97364.06;;;5.91;100.00
4398;BME280;2213;49.720;7.296;2022-09-30T01:55:59;97359.31;;;5.95;100.00
4398;BME280;2213;49.720;7.296;2022-09-30T01:58:39;97365.16;;;5.97;100.00
4398;BME280;2213;49.720;7.296;2022-09-30T02:01:16;97367.81;;;5.89;100.00
4398;BME280;2213;49.720;7.296;2022-09-30T02:03:53;97362.84;;;5.79;100.00
4398;BME280;2213;49.720;7.296;2022-09-30T02:06:27;97366.50;;;5.85;100.00
4398;BME280;2213;49.720;7.296;2022-09-30T02:09:04;97372.81;;;5.90;100.00
4398;BME280;2213;49.720;7.296;2022-09-30T02:11:37;97372.66;;;5.84;100.00
4398;BME280;2213;49.720;7.296;2022-09-30T02:14:12;97380.84;;;5.73;100.00
4398;BME280;2213;49.720;7.296;2022-09-30T02:16:49;97378.84;;;5.60;100.00
4398;BME280;2213;49.720;7.296;2022-09-30T02:19:28;97379.88;;;5.51;100.00
4398;BME280;2213;49.720;7.296;2022-09-30T02:22:03;97384.41;;;5.49;100.00
4398;BME280;2213;49.720;7.296;2022-09-30T02:24:35;97384.28;;;5.42;100.00
4398;BME280;2213;49.720;7.296;2022-09-30T02:27:12;97387.88;;;5.41;100.00
4398;BME280;2213;49.720;7.296;2022-09-30T02:29:47;97392.06;;;5.42;100.00
4398;BME280;2213;49.720;7.296;2022-09-30T02:32:23;97381.06;;;5.40;100.00
4398;BME280;2213;49.720;7.296;2022-09-30T02:35:00;97385.88;;;5.51;100.00
4398;BME280;2213;49.720;7.296;2022-09-30T02:37:35;97375.63;;;5.58;100.00
4398;BME280;2213;49.720;7.296;2022-09-30T02:40:11;97368.97;;;5.55;100.00
4398;BME280;2213;49.720;7.296;2022-09-30T02:42:43;97370.25;;;5.59;100.00
4398;BME280;2213;49.720;7.296;2022-09-30T02:45:16;97371.28;;;5.50;100.00
4398;BME280;2213;49.720;7.296;2022-09-30T02:48:02;97374.16;;;5.55;100.00
4398;BME280;2213;49.720;7.296;2022-09-30T02:50:42;97374.47;;;5.61;100.00
4398;BME280;2213;49.720;7.296;2022-09-30T02:53:22;97385.16;;;5.66;100.00
4398;BME280;2213;49.720;7.296;2022-09-30T02:56:33;97371.88;;;5.61;100.00
4398;BME280;2213;49.720;7.296;2022-09-30T02:59:08;97385.81;;;5.59;100.00
4398;BME280;2213;49.720;7.296;2022-09-30T03:01:37;97391.00;;;5.59;100.00
4398;BME280;2213;49.720;7.296;2022-09-30T03:04:12;97394.97;;;5.47;100.00
4398;BME280;2213;49.720;7.296;2022-09-30T03:06:44;97399.50;;;5.45;100.00
4398;BME280;2213;49.720;7.296;2022-09-30T03:09:13;97395.13;;;5.46;100.00
4398;BME280;2213;49.720;7.296;2022-09-30T03:11:42;97398.69;;;5.45;100.00
4398;BME280;2213;49.720;7.296;2022-09-30T03:14:35;97401.00;;;5.40;100.00
4398;BME280;2213;49.720;7.296;2022-09-30T03:17:49;97400.84;;;5.41;100.00
4398;BME280;2213;49.720;7.296;2022-09-30T03:20:40;97402.16;;;5.37;100.00
4398;BME280;2213;49.720;7.296;2022-09-30T03:26:31;97401.88;;;5.24;100.00
4398;BME280;2213;49.720;7.296;2022-09-30T03:29:12;97406.47;;;5.14;100.00
4398;BME280;2213;49.720;7.296;2022-09-30T03:31:57;97414.28;;;5.06;100.00
4398;BME280;2213;49.720;7.296;2022-09-30T03:34:37;97414.91;;;5.08;100.00
4398;BME280;2213;49.720;7.296;2022-09-30T03:37:20;97416.81;;;5.14;100.00
4398;BME280;2213;49.720;7.296;2022-09-30T03:40:03;97416.97;;;5.21;100.00
4398;BME280;2213;49.720;7.296;2022-09-30T03:42:43;97424.28;;;5.17;100.00
4398;BME280;2213;49.720;7.296;2022-09-30T03:45:20;97428.69;;;5.08;100.00
4398;BME280;2213;49.720;7.296;2022-09-30T03:47:57;97416.69;;;5.07;100.00
4398;BME280;2213;49.720;7.296;2022-09-30T03:50:31;97424.19;;;5.02;100.00
4398;BME280;2213;49.720;7.296;2022-09-30T03:53:03;97422.09;;;4.98;100.00
4398;BME280;2213;49.720;7.296;2022-09-30T03:55:46;97422.09;;;4.98;100.00
4398;BME280;2213;49.720;7.296;2022-09-30T03:58:17;97426.94;;;4.93;100.00
4398;BME280;2213;49.720;7.296;2022-09-30T04:00:50;97424.69;;;4.90;100.00
4398;BME280;2213;49.720;7.296;2022-09-30T04:03:21;97437.34;;;4.85;100.00
4398;BME280;2213;49.720;7.296;2022-09-30T04:05:50;97439.47;;;4.81;100.00
4398;BME280;2213;49.720;7.296;2022-09-30T04:08:18;97441.56;;;4.78;100.00
4398;BME280;2213;49.720;7.296;2022-09-30T04:10:52;97447.09;;;4.75;100.00
4398;BME280;2213;49.720;7.296;2022-09-30T04:13:21;97445.13;;;4.77;100.00
4398;BME280;2213;49.720;7.296;2022-09-30T04:15:53;97446.28;;;4.74;100.00
4398;BME280;2213;49.720;7.296;2022-09-30T04:18:23;97449.00;;;4.73;100.00
4398;BME280;2213;49.720;7.296;2022-09-30T04:20:51;97450.97;;;4.71;100.00
4398;BME280;2213;49.720;7.296;2022-09-30T04:23:21;97452.41;;;4.65;100.00
4398;BME280;2213;49.720;7.296;2022-09-30T04:25:54;97453.41;;;4.64;100.00
4398;BME280;2213;49.720;7.296;2022-09-30T04:28:23;97453.56;;;4.63;100.00
4398;BME280;2213;49.720;7.296;2022-09-30T04:30:51;97453.41;;;4.64;100.00
4398;BME280;2213;49.720;7.296;2022-09-30T04:33:20;97453.09;;;4.59;100.00
4398;BME280;2213;49.720;7.296;2022-09-30T04:35:53;97451.63;;;4.56;100.00
4398;BME280;2213;49.720;7.296;2022-09-30T04:38:23;97452.31;;;4.50;100.00
4398;BME280;2213;49.720;7.296;2022-09-30T04:40:54;97450.34;;;4.52;100.00
4398;BME280;2213;49.720;7.296;2022-09-30T04:43:24;97453.13;;;4.51;100.00
4398;BME280;2213;49.720;7.296;2022-09-30T04:45:53;97457.63;;;4.49;100.00
4398;BME280;2213;49.720;7.296;2022-09-30T04:48:23;97468.78;;;4.41;100.00
4398;BME280;2213;49.720;7.296;2022-09-30T04:50:53;97473.19;;;4.33;100.00
4398;BME280;2213;49.720;7.296;2022-09-30T04:53:23;97476.09;;;4.30;100.00
4398;BME280;2213;49.720;7.296;2022-09-30T04:55:59;97477.06;;;4.29;100.00
4398;BME280;2213;49.720;7.296;2022-09-30T04:58:29;97482.88;;;4.31;100.00
4398;BME280;2213;49.720;7.296;2022-09-30T05:01:05;97496.13;;;4.28;100.00
4398;BME280;2213;49.720;7.296;2022-09-30T05:03:36;97495.16;;;4.21;100.00
4398;BME280;2213;49.720;7.296;2022-09-30T05:06:06;97498.38;;;4.15;100.00
4398;BME280;2213;49.720;7.296;2022-09-30T05:08:35;97498.53;;;4.13;100.00
4398;BME280;2213;49.720;7.296;2022-09-30T05:11:15;97497.91;;;4.19;100.00
4398;BME280;2213;49.720;7.296;2022-09-30T05:13:46;97502.25;;;4.11;100.00
4398;BME280;2213;49.720;7.296;2022-09-30T05:16:16;97516.81;;;4.12;100.00
4398;BME280;2213;49.720;7.296;2022-09-30T05:18:45;97518.44;;;4.13;100.00
4398;BME280;2213;49.720;7.296;2022-09-30T05:21:17;97527.97;;;4.12;100.00
4398;BME280;2213;49.720;7.296;2022-09-30T05:23:47;97533.78;;;4.14;100.00
4398;BME280;2213;49.720;7.296;2022-09-30T05:26:17;97536.06;;;4.09;100.00
4398;BME280;2213;49.720;7.296;2022-09-30T05:28:46;97530.72;;;4.02;100.00
4398;BME280;2213;49.720;7.296;2022-09-30T05:31:15;97541.53;;;3.98;100.00
4398;BME280;2213;49.720;7.296;2022-09-30T05:33:45;97546.88;;;4.04;100.00
4398;BME280;2213;49.720;7.296;2022-09-30T05:36:15;97544.28;;;4.04;100.00
4398;BME280;2213;49.720;7.296;2022-09-30T05:38:44;97542.84;;;4.02;100.00
4398;BME280;2213;49.720;7.296;2022-09-30T05:41:13;97550.59;;;4.02;100.00
4398;BME280;2213;49.720;7.296;2022-09-30T05:43:43;97552.50;;;4.00;100.00
4398;BME280;2213;49.720;7.296;2022-09-30T05:46:14;97559.97;;;4.03;100.00
4398;BME280;2213;49.720;7.296;2022-09-30T05:48:44;97559.00;;;4.04;100.00
4398;BME280;2213;49.720;7.296;2022-09-30T05:51:13;97554.78;;;4.03;100.00
4398;BME280;2213;49.720;7.296;2022-09-30T05:53:42;97561.59;;;4.04;100.00
4398;BME280;2213;49.720;7.296;2022-09-30T05:56:11;97561.59;;;4.04;100.00
4398;BME280;2213;49.720;7.296;2022-09-30T05:58:40;97569.53;;;4.02;100.00
4398;BME280;2213;49.720;7.296;2022-09-30T06:01:12;97562.91;;;4.08;100.00
4398;BME280;2213;49.720;7.296;2022-09-30T06:03:43;97571.16;;;4.12;100.00
4398;BME280;2213;49.720;7.296;2022-09-30T06:06:13;97568.88;;;4.09;100.00
4398;BME280;2213;49.720;7.296;2022-09-30T06:08:42;97578.09;;;4.11;100.00
4398;BME280;2213;49.720;7.296;2022-09-30T06:11:13;97579.38;;;4.07;100.00
4398;BME280;2213;49.720;7.296;2022-09-30T06:13:43;97585.81;;;4.03;100.00
4398;BME280;2213;49.720;7.296;2022-09-30T06:16:16;97585.53;;;4.06;100.00
4398;BME280;2213;49.720;7.296;2022-09-30T06:18:45;97583.41;;;4.01;100.00
4398;BME280;2213;49.720;7.296;2022-09-30T06:21:16;97590.69;;;3.98;100.00
4398;BME280;2213;49.720;7.296;2022-09-30T06:23:45;97594.88;;;3.99;100.00
4398;BME280;2213;49.720;7.296;2022-09-30T06:26:14;97593.25;;;3.98;100.00
4398;BME280;2213;49.720;7.296;2022-09-30T06:28:43;97591.00;;;3.95;100.00
4398;BME280;2213;49.720;7.296;2022-09-30T06:31:11;97597.31;;;4.00;100.00
4398;BME280;2213;49.720;7.296;2022-09-30T06:33:42;97601.66;;;4.00;100.00
4398;BME280;2213;49.720;7.296;2022-09-30T06:36:12;97604.75;;;4.03;100.00
4398;BME280;2213;49.720;7.296;2022-09-30T06:38:43;97607.34;;;4.03;100.00
4398;BME280;2213;49.720;7.296;2022-09-30T06:41:13;97599.09;;;4.08;100.00
4398;BME280;2213;49.720;7.296;2022-09-30T06:43:41;97609.13;;;4.11;100.00
4398;BME280;2213;49.720;7.296;2022-09-30T06:46:25;97609.94;;;4.12;100.00
4398;BME280;2213;49.720;7.296;2022-09-30T06:48:59;97612.88;;;4.17;100.00
4398;BME280;2213;49.720;7.296;2022-09-30T06:51:39;97616.63;;;4.22;100.00
4398;BME280;2213;49.720;7.296;2022-09-30T06:54:09;97619.53;;;4.27;100.00
4398;BME280;2213;49.720;7.296;2022-09-30T06:56:39;97620.50;;;4.26;100.00
4398;BME280;2213;49.720;7.296;2022-09-30T06:59:11;97624.19;;;4.24;100.00
4398;BME280;2213;49.720;7.296;2022-09-30T07:01:42;97631.69;;;4.27;100.00
4398;BME280;2213;49.720;7.296;2022-09-30T07:04:13;97631.19;;;4.31;100.00
4398;BME280;2213;49.720;7.296;2022-09-30T07:06:42;97625.03;;;4.32;100.00
4398;BME280;2213;49.720;7.296;2022-09-30T07:09:11;97622.13;;;4.35;100.00
4398;BME280;2213;49.720;7.296;2022-09-30T07:11:40;97628.63;;;4.39;100.00
4398;BME280;2213;49.720;7.296;2022-09-30T07:14:09;97629.25;;;4.41;100.00
4398;BME280;2213;49.720;7.296;2022-09-30T07:16:39;97625.38;;;4.45;100.00
4398;BME280;2213;49.720;7.296;2022-09-30T07:19:10;97625.06;;;4.48;100.00
4398;BME280;2213;49.720;7.296;2022-09-30T07:21:40;97631.56;;;4.52;100.00
4398;BME280;2213;49.720;7.296;2022-09-30T07:24:09;97625.09;;;4.56;100.00
4398;BME280;2213;49.720;7.296;2022-09-30T07:26:38;97619.59;;;4.60;100.00
4398;BME280;2213;49.720;7.296;2022-09-30T07:29:06;97617.34;;;4.65;100.00
4398;BME280;2213;49.720;7.296;2022-09-30T07:31:35;97618.63;;;4.69;100.00
4398;BME280;2213;49.720;7.296;2022-09-30T07:34:06;97628.50;;;4.73;100.00
4398;BME280;2213;49.720;7.296;2022-09-30T07:36:37;97628.19;;;4.76;100.00
4398;BME280;2213;49.720;7.296;2022-09-30T07:39:09;97627.84;;;4.79;100.00
4398;BME280;2213;49.720;7.296;2022-09-30T07:41:39;97624.78;;;4.84;100.00
4398;BME280;2213;49.720;7.296;2022-09-30T07:44:12;97630.31;;;4.89;100.00
4398;BME280;2213;49.720;7.296;2022-09-30T07:46:43;97624.00;;;4.91;100.00
4398;BME280;2213;49.720;7.296;2022-09-30T07:49:15;97632.25;;;4.95;100.00
4398;BME280;2213;49.720;7.296;2022-09-30T07:51:52;97624.78;;;5.00;100.00
4398;BME280;2213;49.720;7.296;2022-09-30T07:54:26;97630.31;;;5.05;100.00
4398;BME280;2213;49.720;7.296;2022-09-30T07:56:56;97628.03;;;5.10;100.00
4398;BME280;2213;49.720;7.296;2022-09-30T07:59:41;97636.13;;;5.15;100.00
4398;BME280;2213;49.720;7.296;2022-09-30T08:02:14;97633.88;;;5.20;100.00
4398;BME280;2213;49.720;7.296;2022-09-30T08:04:44;97641.94;;;5.25;100.00
4398;BME280;2213;49.720;7.296;2022-09-30T08:07:15;97634.50;;;5.30;100.00
4398;BME280;2213;49.720;7.296;2022-09-30T08:09:46;97637.72;;;5.32;100.00
4398;BME280;2213;49.720;7.296;2022-09-30T08:12:15;97638.69;;;5.39;100.00
4398;BME280;2213;49.720;7.296;2022-09-30T08:14:44;97636.25;;;5.46;100.00
4398;BME280;2213;49.720;7.296;2022-09-30T08:17:13;97639.97;;;5.51;100.00
4398;BME280;2213;49.720;7.296;2022-09-30T08:19:42;97640.13;;;5.58;100.00
4398;BME280;2213;49.720;7.296;2022-09-30T08:22:11;97638.31;;;5.67;100.00
4398;BME280;2213;49.720;7.296;2022-09-30T08:24:41;97644.63;;;5.72;100.00
4398;BME280;2213;49.720;7.296;2022-09-30T08:27:11;97646.22;;;5.81;100.00
4398;BME280;2213;49.720;7.296;2022-09-30T08:29:40;97649.78;;;5.88;100.00
4398;BME280;2213;49.720;7.296;2022-09-30T08:32:29;97646.38;;;5.96;100.00
4398;BME280;2213;49.720;7.296;2022-09-30T08:34:58;97639.69;;;6.01;100.00
4398;BME280;2213;49.720;7.296;2022-09-30T08:37:27;97643.41;;;6.07;100.00
4398;BME280;2213;49.720;7.296;2022-09-30T08:39:56;97639.47;;;6.11;100.00
4398;BME280;2213;49.720;7.296;2022-09-30T08:42:45;97656.00;;;6.18;100.00
4398;BME280;2213;49.720;7.296;2022-09-30T08:45:35;97646.56;;;6.25;100.00
4398;BME280;2213;49.720;7.296;2022-09-30T08:48:21;97656.28;;;6.31;100.00
4398;BME280;2213;49.720;7.296;2022-09-30T08:51:13;97651.03;;;6.39;100.00
4398;BME280;2213;49.720;7.296;2022-09-30T08:53:48;97644.16;;;6.46;100.00
4398;BME280;2213;49.720;7.296;2022-09-30T08:56:23;97650.31;;;6.53;100.00
4398;BME280;2213;49.720;7.296;2022-09-30T08:59:00;97646.84;;;6.61;100.00
4398;BME280;2213;49.720;7.296;2022-09-30T09:01:35;97646.00;;;6.69;100.00
4398;BME280;2213;49.720;7.296;2022-09-30T09:04:08;97651.16;;;6.77;100.00
4398;BME280;2213;49.720;7.296;2022-09-30T09:06:52;97660.50;;;6.86;100.00
4398;BME280;2213;49.720;7.296;2022-09-30T09:09:42;97659.44;;;6.95;100.00
4398;BME280;2213;49.720;7.296;2022-09-30T09:12:27;97661.19;;;7.02;100.00
4398;BME280;2213;49.720;7.296;2022-09-30T09:15:30;97668.94;;;7.11;100.00
4398;BME280;2213;49.720;7.296;2022-09-30T09:21:20;97664.56;;;7.26;100.00
4398;BME280;2213;49.720;7.296;2022-09-30T09:23:52;97657.50;;;7.34;100.00
4398;BME280;2213;49.720;7.296;2022-09-30T09:26:23;97662.66;;;7.42;100.00
4398;BME280;2213;49.720;7.296;2022-09-30T09:29:09;97663.56;;;7.49;100.00
4398;BME280;2213;49.720;7.296;2022-09-30T09:31:44;97661.06;;;7.56;100.00
4398;BME280;2213;49.720;7.296;2022-09-30T09:34:14;97667.94;;;7.64;100.00
4398;BME280;2213;49.720;7.296;2022-09-30T09:37:01;97671.47;;;7.71;100.00
4398;BME280;2213;49.720;7.296;2022-09-30T09:39:57;97668.78;;;7.79;100.00
4398;BME280;2213;49.720;7.296;2022-09-30T09:42:57;97665.13;;;7.88;100.00
4398;BME280;2213;49.720;7.296;2022-09-30T09:45:36;97655.41;;;7.96;100.00
4398;BME280;2213;49.720;7.296;2022-09-30T09:48:12;97664.13;;;8.03;100.00
4398;BME280;2213;49.720;7.296;2022-09-30T09:50:54;97669.41;;;8.10;100.00
4398;BME280;2213;49.720;7.296;2022-09-30T09:53:47;97670.94;;;8.19;100.00
4398;BME280;2213;49.720;7.296;2022-09-30T09:56:18;97671.81;;;8.26;100.00
4398;BME280;2213;49.720;7.296;2022-09-30T09:59:12;97669.16;;;8.34;100.00
4398;BME280;2213;49.720;7.296;2022-09-30T10:01:49;97663.03;;;8.42;100.00
4398;BME280;2213;49.720;7.296;2022-09-30T10:04:23;97658.50;;;8.50;100.00
4398;BME280;2213;49.720;7.296;2022-09-30T10:06:55;97651.84;;;8.63;100.00
4398;BME280;2213;49.720;7.296;2022-09-30T10:09:31;97643.28;;;8.69;100.00
4398;BME280;2213;49.720;7.296;2022-09-30T10:12:28;97638.94;;;8.76;100.00
4398;BME280;2213;49.720;7.296;2022-09-30T10:15:01;97628.78;;;8.81;100.00
4398;BME280;2213;49.720;7.296;2022-09-30T10:17:32;97627.66;;;8.90;100.00
4398;BME280;2213;49.720;7.296;2022-09-30T10:20:16;97624.56;;;9.01;100.00
4398;BME280;2213;49.720;7.296;2022-09-30T10:22:47;97623.63;;;9.08;100.00
4398;BME280;2213;49.720;7.296;2022-09-30T10:25:23;97624.66;;;9.14;100.00
4398;BME280;2213;49.720;7.296;2022-09-30T10:27:56;97621.28;;;9.20;100.00
4398;BME280;2213;49.720;7.296;2022-09-30T10:30:50;97626.38;;;9.28;100.00
4398;BME280;2213;49.720;7.296;2022-09-30T10:33:29;97633.44;;;9.34;100.00
4398;BME280;2213;49.720;7.296;2022-09-30T10:36:15;97631.69;;;9.41;100.00
4398;BME280;2213;49.720;7.296;2022-09-30T10:38:57;97632.53;;;9.48;100.00
4398;BME280;2213;49.720;7.296;2022-09-30T10:41:36;97638.44;;;9.57;100.00
4398;BME280;2213;49.720;7.296;2022-09-30T10:44:15;97627.66;;;9.67;100.00
4398;BME280;2213;49.720;7.296;2022-09-30T10:46:48;97631.91;;;9.74;100.00
4398;BME280;2213;49.720;7.296;2022-09-30T10:49:28;97636.78;;;9.84;100.00
4398;BME280;2213;49.720;7.296;2022-09-30T10:52:00;97630.78;;;9.90;100.00
4398;BME280;2213;49.720;7.296;2022-09-30T10:54:50;97631.47;;;9.98;100.00
4398;BME280;2213;49.720;7.296;2022-09-30T10:57:23;97635.94;;;10.11;100.00
4398;BME280;2213;49.720;7.296;2022-09-30T10:59:57;97623.34;;;10.21;100.00
4398;BME280;2213;49.720;7.296;2022-09-30T11:02:34;97620.16;;;10.32;100.00
4398;BME280;2213;49.720;7.296;2022-09-30T11:05:16;97619.38;;;10.38;100.00
4398;BME280;2213;49.720;7.296;2022-09-30T11:07:53;97618.22;;;10.47;100.00
4398;BME280;2213;49.720;7.296;2022-09-30T11:10:33;97619.66;;;10.56;100.00
4398;BME280;2213;49.720;7.296;2022-09-30T11:13:17;97617.84;;;10.64;100.00
4398;BME280;2213;49.720;7.296;2022-09-30T11:16:01;97618.84;;;10.69;100.00
4398;BME280;2213;49.720;7.296;2022-09-30T11:18:40;97622.69;;;10.73;100.00
4398;BME280;2213;49.720;7.296;2022-09-30T11:21:15;97622.13;;;10.84;100.00
4398;BME280;2213;49.720;7.296;2022-09-30T11:23:53;97624.97;;;10.96;100.00
4398;BME280;2213;49.720;7.296;2022-09-30T11:26:36;97619.50;;;11.04;100.00
4398;BME280;2213;49.720;7.296;2022-09-30T11:29:52;97620.94;;;11.13;100.00
4398;BME280;2213;49.720;7.296;2022-09-30T11:32:44;97629.59;;;11.20;100.00
4398;BME280;2213;49.720;7.296;2022-09-30T11:35:34;97625.78;;;11.29;100.00
4398;BME280;2213;49.720;7.296;2022-09-30T11:38:44;97617.91;;;11.42;100.00
4398;BME280;2213;49.720;7.296;2022-09-30T11:41:26;97632.00;;;11.54;100.00
4398;BME280;2213;49.720;7.296;2022-09-30T11:44:13;97620.31;;;11.63;100.00
4398;BME280;2213;49.720;7.296;2022-09-30T11:47:26;97618.88;;;11.81;100.00
4398;BME280;2213;49.720;7.296;2022-09-30T11:50:18;97616.66;;;11.91;100.00
4398;BME280;2213;49.720;7.296;2022-09-30T11:53:01;97616.63;;;12.04;100.00
4398;BME280;2213;49.720;7.296;2022-09-30T11:55:58;97616.91;;;12.34;100.00
4398;BME280;2213;49.720;7.296;2022-09-30T11:58:37;97622.72;;;12.42;99.37
4398;BME280;2213;49.720;7.296;2022-09-30T12:01:17;97615.25;;;12.46;100.00
4398;BME280;2213;49.720;7.296;2022-09-30T12:03:58;97608.34;;;12.51;100.00
4398;BME280;2213;49.720;7.296;2022-09-30T12:06:34;97606.50;;;12.58;100.00
4398;BME280;2213;49.720;7.296;2022-09-30T12:09:13;97615.91;;;12.73;99.20
4398;BME280;2213;49.720;7.296;2022-09-30T12:11:52;97609.38;;;12.82;99.71
4398;BME280;2213;49.720;7.296;2022-09-30T12:14:32;97599.50;;;12.84;100.00
4398;BME280;2213;49.720;7.296;2022-09-30T12:17:06;97608.88;;;12.98;99.29
4398;BME280;2213;49.720;7.296;2022-09-30T12:19:46;97601.34;;;13.08;99.67
4398;BME280;2213;49.720;7.296;2022-09-30T12:22:23;97605.75;;;13.14;99.27
4398;BME280;2213;49.720;7.296;2022-09-30T12:24:55;97606.66;;;13.26;98.58
4398;BME280;2213;49.720;7.296;2022-09-30T12:27:34;97606.63;;;13.33;95.85
4398;BME280;2213;49.720;7.296;2022-09-30T12:30:14;97605.38;;;13.35;96.88
4398;BME280;2213;49.720;7.296;2022-09-30T12:33:20;97618.97;;;13.50;93.38
4398;BME280;2213;49.720;7.296;2022-09-30T12:36:41;97620.91;;;13.61;94.82
4398;BME280;2213;49.720;7.296;2022-09-30T12:39:51;97624.38;;;13.80;93.23
4398;BME280;2213;49.720;7.296;2022-09-30T12:46:08;97629.19;;;13.83;91.88
4398;BME280;2213;49.720;7.296;2022-09-30T12:48:46;97626.34;;;13.85;92.12
4398;BME280;2213;49.720;7.296;2022-09-30T12:51:26;97627.72;;;13.87;90.65
4398;BME280;2213;49.720;7.296;2022-09-30T12:54:01;97630.84;;;13.96;90.58
4398;BME280;2213;49.720;7.296;2022-09-30T12:56:33;97631.38;;;14.04;88.07
4398;BME280;2213;49.720;7.296;2022-09-30T12:59:03;97624.81;;;14.13;83.69
4398;BME280;2213;49.720;7.296;2022-09-30T13:01:38;97627.16;;;14.22;84.64
4398;BME280;2213;49.720;7.296;2022-09-30T13:04:28;97620.16;;;14.16;84.41
4398;BME280;2213;49.720;7.296;2022-09-30T13:07:19;97627.66;;;14.12;85.05
4398;BME280;2213;49.720;7.296;2022-09-30T13:10:01;97623.50;;;14.04;86.93
4398;BME280;2213;49.720;7.296;2022-09-30T13:13:18;97628.22;;;13.96;89.12
4398;BME280;2213;49.720;7.296;2022-09-30T13:15:50;97627.44;;;13.95;91.49
4398;BME280;2213;49.720;7.296;2022-09-30T13:19:01;97626.66;;;13.95;91.08
4398;BME280;2213;49.720;7.296;2022-09-30T13:21:31;97622.97;;;13.96;89.81
4398;BME280;2213;49.720;7.296;2022-09-30T13:23:59;97628.59;;;13.99;89.82
4398;BME280;2213;49.720;7.296;2022-09-30T13:26:39;97627.94;;;14.04;92.74
4398;BME280;2213;49.720;7.296;2022-09-30T13:29:36;97629.41;;;14.18;87.60
4398;BME280;2213;49.720;7.296;2022-09-30T13:32:07;97632.78;;;14.25;85.37
4398;BME280;2213;49.720;7.296;2022-09-30T13:35:31;97631.97;;;14.25;83.73
4398;BME280;2213;49.720;7.296;2022-09-30T13:38:16;97627.97;;;14.22;83.65
4398;BME280;2213;49.720;7.296;2022-09-30T13:40:49;97626.50;;;14.26;83.72
4398;BME280;2213;49.720;7.296;2022-09-30T13:43:41;97620.56;;;14.31;82.71
4398;BME280;2213;49.720;7.296;2022-09-30T13:46:23;97623.72;;;14.39;84.58
4398;BME280;2213;49.720;7.296;2022-09-30T13:49:02;97630.00;;;14.38;84.10
4398;BME280;2213;49.720;7.296;2022-09-30T13:51:34;97633.50;;;14.32;82.13
4398;BME280;2213;49.720;7.296;2022-09-30T13:54:11;97633.66;;;14.37;84.31
4398;BME280;2213;49.720;7.296;2022-09-30T13:56:44;97633.34;;;14.64;82.81
4398;BME280;2213;49.720;7.296;2022-09-30T13:59:43;97627.19;;;15.11;82.42
4398;BME280;2213;49.720;7.296;2022-09-30T14:03:07;97615.66;;;15.47;82.34
4398;BME280;2213;49.720;7.296;2022-09-30T14:05:53;97612.63;;;15.62;78.07
4398;BME280;2213;49.720;7.296;2022-09-30T14:09:18;97614.22;;;15.86;77.15
4398;BME280;2213;49.720;7.296;2022-09-30T14:15:57;97599.19;;;15.63;71.90
4398;BME280;2213;49.720;7.296;2022-09-30T14:18:58;97603.19;;;15.66;71.18
4398;BME280;2213;49.720;7.296;2022-09-30T14:21:38;97598.94;;;15.76;71.60
4398;BME280;2213;49.720;7.296;2022-09-30T14:24:14;97595.97;;;15.84;76.61
4398;BME280;2213;49.720;7.296;2022-09-30T14:27:16;97594.81;;;15.92;74.88
4398;BME280;2213;49.720;7.296;2022-09-30T14:30:01;97597.78;;;15.95;72.07
4398;BME280;2213;49.720;7.296;2022-09-30T14:32:38;97592.25;;;16.08;71.77
4398;BME280;2213;49.720;7.296;2022-09-30T14:35:15;97594.34;;;16.06;67.83